sensor_id;sensor_type;location;lat;lon;timestamp;pressure;altitude;pressure_sealevel;temperature;humidity
17785;BME280;9016;53.582;10.062;2023-01-15T00:00:19;99347.91;;;9.38;80.45
17785;BME280;9016;53.582;10.062;2023-01-15T00:02:47;99343.44;;;9.28;78.63
17785;BME280;9016;53.582;10.062;2023-01-15T00:05:16;99341.72;;;9.27;78.15
17785;BME280;9016;53.582;10.062;2023-01-15T00:07:45;99343.91;;;9.33;78.33
17785;BME280;9016;53.582;10.062;2023-01-15T00:10:13;99336.19;;;9.41;77.87
17785;BME280;9016;53.582;10.062;2023-01-15T00:12:41;99338.47;;;9.34;78.24
17785;BME280;9016;53.582;10.062;2023-01-15T00:15:09;99343.44;;;9.28;78.36
17785;BME280;9016;53.582;10.062;2023-01-15T00:17:40;99336.66;;;9.24;78.51
17785;BME280;9016;53.582;10.062;2023-01-15T00:20:09;99337.47;;;9.13;78.31
17785;BME280;9016;53.582;10.062;2023-01-15T00:22:37;99316.44;;;9.10;79.43
17785;BME280;9016;53.582;10.062;2023-01-15T00:25:08;99328.88;;;9.10;78.71
17785;BME280;9016;53.582;10.062;2023-01-15T00:27:53;99332.38;;;9.10;80.38
17785;BME280;9016;53.582;10.062;2023-01-15T00:30:27;99330.31;;;9.02;79.63
17785;BME280;9016;53.582;10.062;2023-01-15T00:32:55;99336.97;;;9.08;79.58
17785;BME280;9016;53.582;10.062;2023-01-15T00:35:25;99354.97;;;9.05;79.73
17785;BME280;9016;53.582;10.062;2023-01-15T00:37:53;99352.03;;;8.96;79.51
17785;BME280;9016;53.582;10.062;2023-01-15T00:40:23;99352.28;;;8.93;79.27
17785;BME280;9016;53.582;10.062;2023-01-15T00:42:51;99356.34;;;8.86;80.46
17785;BME280;9016;53.582;10.062;2023-01-15T00:45:20;99358.44;;;8.94;80.18
17785;BME280;9016;53.582;10.062;2023-01-15T00:47:49;99363.72;;;8.83;79.68
17785;BME280;9016;53.582;10.062;2023-01-15T00:50:20;99363.97;;;8.91;79.62
17785;BME280;9016;53.582;10.062;2023-01-15T00:52:48;99385.56;;;8.86;79.78
17785;BME280;9016;53.582;10.062;2023-01-15T00:55:16;99375.88;;;8.85;79.84
17785;BME280;9016;53.582;10.062;2023-01-15T00:57:46;99373.84;;;8.78;80.03
17785;BME280;9016;53.582;10.062;2023-01-15T01:00:15;99382.78;;;8.88;79.55
17785;BME280;9016;53.582;10.062;2023-01-15T01:02:43;99378.47;;;8.87;80.10
17785;BME280;9016;53.582;10.062;2023-01-15T01:05:12;99387.00;;;8.79;79.79
17785;BME280;9016;53.582;10.062;2023-01-15T01:07:40;99381.06;;;8.76;79.71
17785;BME280;9016;53.582;10.062;2023-01-15T01:10:09;99384.47;;;8.78;80.14
17785;BME280;9016;53.582;10.062;2023-01-15T01:12:37;99393.19;;;8.67;80.21
17785;BME280;9016;53.582;10.062;2023-01-15T01:15:07;99400.84;;;8.72;80.69
17785;BME280;9016;53.582;10.062;2023-01-15T01:17:36;99394.84;;;8.81;79.46
17785;BME280;9016;53.582;10.062;2023-01-15T01:20:06;99399.75;;;8.74;80.20
17785;BME280;9016;53.582;10.062;2023-01-15T01:22:35;99414.16;;;8.83;80.96
17785;BME280;9016;53.582;10.062;2023-01-15T01:25:04;99407.75;;;8.85;79.59
17785;BME280;9016;53.582;10.062;2023-01-15T01:27:32;99411.97;;;8.77;79.73
17785;BME280;9016;53.582;10.062;2023-01-15T01:30:00;99403.88;;;8.78;80.80
17785;BME280;9016;53.582;10.062;2023-01-15T01:32:30;99405.28;;;8.71;80.44
17785;BME280;9016;53.582;10.062;2023-01-15T01:34:58;99407.00;;;8.72;80.77
17785;BME280;9016;53.582;10.062;2023-01-15T01:37:26;99408.00;;;8.59;81.72
17785;BME280;9016;53.582;10.062;2023-01-15T01:39:54;99404.91;;;8.65;82.39
17785;BME280;9016;53.582;10.062;2023-01-15T01:42:22;99399.47;;;8.66;82.93
17785;BME280;9016;53.582;10.062;2023-01-15T01:45:11;99401.09;;;8.80;82.32
17785;BME280;9016;53.582;10.062;2023-01-15T01:47:46;99399.19;;;8.82;82.19
17785;BME280;9016;53.582;10.062;2023-01-15T01:50:14;99409.97;;;8.68;83.46
17785;BME280;9016;53.582;10.062;2023-01-15T01:52:45;99408.13;;;8.57;84.33
17785;BME280;9016;53.582;10.062;2023-01-15T01:55:16;99399.69;;;8.63;83.80
17785;BME280;9016;53.582;10.062;2023-01-15T01:57:46;99408.69;;;8.73;83.31
17785;BME280;9016;53.582;10.062;2023-01-15T02:00:15;99412.47;;;8.58;83.42
17785;BME280;9016;53.582;10.062;2023-01-15T02:02:46;99407.66;;;8.63;84.01
17785;BME280;9016;53.582;10.062;2023-01-15T02:05:22;99406.28;;;8.70;83.72
17785;BME280;9016;53.582;10.062;2023-01-15T02:07:53;99404.44;;;8.71;83.13
17785;BME280;9016;53.582;10.062;2023-01-15T02:10:22;99394.63;;;8.60;84.51
17785;BME280;9016;53.582;10.062;2023-01-15T02:12:55;99390.84;;;8.75;84.97
17785;BME280;9016;53.582;10.062;2023-01-15T02:15:30;99391.50;;;8.66;83.13
17785;BME280;9016;53.582;10.062;2023-01-15T02:18:08;99391.28;;;8.69;84.31
17785;BME280;9016;53.582;10.062;2023-01-15T02:20:41;99376.81;;;8.73;83.12
17785;BME280;9016;53.582;10.062;2023-01-15T02:23:22;99381.41;;;8.71;83.22
17785;BME280;9016;53.582;10.062;2023-01-15T02:26:05;99391.03;;;8.61;83.15
17785;BME280;9016;53.582;10.062;2023-01-15T02:28:39;99382.25;;;8.72;83.52
17785;BME280;9016;53.582;10.062;2023-01-15T02:31:14;99394.47;;;8.85;83.02
17785;BME280;9016;53.582;10.062;2023-01-15T02:33:48;99386.63;;;8.84;82.29
17785;BME280;9016;53.582;10.062;2023-01-15T02:36:20;99387.59;;;8.83;81.54
17785;BME280;9016;53.582;10.062;2023-01-15T02:38:52;99387.78;;;8.92;81.48
17785;BME280;9016;53.582;10.062;2023-01-15T02:41:28;99369.50;;;8.88;79.46
17785;BME280;9016;53.582;10.062;2023-01-15T02:44:00;99360.69;;;8.87;79.67
17785;BME280;9016;53.582;10.062;2023-01-15T02:46:32;99364.59;;;8.94;79.99
17785;BME280;9016;53.582;10.062;2023-01-15T02:49:02;99360.38;;;8.92;79.20
17785;BME280;9016;53.582;10.062;2023-01-15T02:51:43;99352.38;;;8.92;78.20
17785;BME280;9016;53.582;10.062;2023-01-15T02:54:14;99359.16;;;8.96;78.47
17785;BME280;9016;53.582;10.062;2023-01-15T02:56:46;99355.91;;;8.92;78.49
17785;BME280;9016;53.582;10.062;2023-01-15T02:59:21;99373.97;;;8.87;78.44
17785;BME280;9016;53.582;10.062;2023-01-15T03:01:54;99369.03;;;8.83;77.76
17785;BME280;9016;53.582;10.062;2023-01-15T03:04:29;99371.06;;;8.79;77.70
17785;BME280;9016;53.582;10.062;2023-01-15T03:07:04;99378.28;;;8.77;78.48
17785;BME280;9016;53.582;10.062;2023-01-15T03:09:34;99372.25;;;8.75;78.16
17785;BME280;9016;53.582;10.062;2023-01-15T03:12:06;99371.69;;;8.83;78.98
17785;BME280;9016;53.582;10.062;2023-01-15T03:14:43;99372.75;;;8.80;77.74
17785;BME280;9016;53.582;10.062;2023-01-15T03:17:17;99366.06;;;8.75;78.21
17785;BME280;9016;53.582;10.062;2023-01-15T03:19:48;99369.72;;;8.74;78.23
17785;BME280;9016;53.582;10.062;2023-01-15T03:22:22;99370.44;;;8.76;78.60
17785;BME280;9016;53.582;10.062;2023-01-15T03:24:53;99366.38;;;8.83;78.61
17785;BME280;9016;53.582;10.062;2023-01-15T03:27:22;99362.53;;;8.87;78.26
17785;BME280;9016;53.582;10.062;2023-01-15T03:29:57;99365.19;;;8.63;78.58
17785;BME280;9016;53.582;10.062;2023-01-15T03:32:27;99369.47;;;8.53;78.53
17785;BME280;9016;53.582;10.062;2023-01-15T03:34:57;99363.44;;;8.51;78.25
17785;BME280;9016;53.582;10.062;2023-01-15T03:37:26;99354.56;;;8.63;78.35
17785;BME280;9016;53.582;10.062;2023-01-15T03:39:55;99351.06;;;8.63;78.51
17785;BME280;9016;53.582;10.062;2023-01-15T03:42:31;99367.13;;;8.61;77.96
17785;BME280;9016;53.582;10.062;2023-01-15T03:45:07;99363.63;;;8.61;78.21
17785;BME280;9016;53.582;10.062;2023-01-15T03:47:43;99364.84;;;8.44;78.50
17785;BME280;9016;53.582;10.062;2023-01-15T03:50:18;99358.13;;;8.51;78.68
17785;BME280;9016;53.582;10.062;2023-01-15T03:52:55;99359.03;;;8.63;79.13
17785;BME280;9016;53.582;10.062;2023-01-15T03:55:28;99354.13;;;8.46;78.08
17785;BME280;9016;53.582;10.062;2023-01-15T03:58:07;99339.25;;;8.43;77.96
17785;BME280;9016;53.582;10.062;2023-01-15T04:00:41;99352.41;;;8.45;79.50
17785;BME280;9016;53.582;10.062;2023-01-15T04:03:12;99345.47;;;8.55;78.48
17785;BME280;9016;53.582;10.062;2023-01-15T04:05:42;99336.91;;;8.51;78.68
17785;BME280;9016;53.582;10.062;2023-01-15T04:08:11;99335.34;;;8.60;79.33
17785;BME280;9016;53.582;10.062;2023-01-15T04:10:52;99349.88;;;8.67;77.68
17785;BME280;9016;53.582;10.062;2023-01-15T04:13:21;99332.50;;;8.63;78.22
17785;BME280;9016;53.582;10.062;2023-01-15T04:15:51;99329.16;;;8.48;77.80
17785;BME280;9016;53.582;10.062;2023-01-15T04:18:19;99336.78;;;8.53;77.94
17785;BME280;9016;53.582;10.062;2023-01-15T04:20:47;99339.06;;;8.46;78.10
17785;BME280;9016;53.582;10.062;2023-01-15T04:23:16;99332.09;;;8.56;78.33
17785;BME280;9016;53.582;10.062;2023-01-15T04:25:43;99332.16;;;8.44;79.10
17785;BME280;9016;53.582;10.062;2023-01-15T04:28:12;99337.34;;;8.45;78.38
17785;BME280;9016;53.582;10.062;2023-01-15T04:30:40;99330.34;;;8.44;79.24
17785;BME280;9016;53.582;10.062;2023-01-15T04:33:10;99325.78;;;8.46;78.90
17785;BME280;9016;53.582;10.062;2023-01-15T04:35:38;99317.28;;;8.41;78.55
17785;BME280;9016;53.582;10.062;2023-01-15T04:38:06;99318.63;;;8.47;78.47
17785;BME280;9016;53.582;10.062;2023-01-15T04:40:34;99338.53;;;8.41;77.61
17785;BME280;9016;53.582;10.062;2023-01-15T04:43:20;99322.59;;;8.41;77.81
17785;BME280;9016;53.582;10.062;2023-01-15T04:46:05;99325.97;;;8.43;78.76
17785;BME280;9016;53.582;10.062;2023-01-15T04:48:35;99331.53;;;8.40;78.64
17785;BME280;9016;53.582;10.062;2023-01-15T04:51:03;99331.13;;;8.34;78.69
17785;BME280;9016;53.582;10.062;2023-01-15T04:53:31;99327.41;;;8.36;77.62
17785;BME280;9016;53.582;10.062;2023-01-15T04:56:00;99327.69;;;8.44;78.05
17785;BME280;9016;53.582;10.062;2023-01-15T04:58:29;99334.53;;;8.23;77.75
17785;BME280;9016;53.582;10.062;2023-01-15T05:00:57;99336.78;;;8.29;78.27
17785;BME280;9016;53.582;10.062;2023-01-15T05:03:26;99331.59;;;8.28;78.03
17785;BME280;9016;53.582;10.062;2023-01-15T05:05:59;99302.44;;;8.15;78.61
17785;BME280;9016;53.582;10.062;2023-01-15T05:08:28;99306.75;;;8.16;78.55
17785;BME280;9016;53.582;10.062;2023-01-15T05:11:00;99318.72;;;8.22;77.90
17785;BME280;9016;53.582;10.062;2023-01-15T05:13:28;99310.78;;;8.22;78.53
17785;BME280;9016;53.582;10.062;2023-01-15T05:16:07;99311.94;;;8.18;78.73
17785;BME280;9016;53.582;10.062;2023-01-15T05:18:36;99307.19;;;8.10;78.96
17785;BME280;9016;53.582;10.062;2023-01-15T05:21:05;99319.28;;;8.14;78.77
17785;BME280;9016;53.582;10.062;2023-01-15T05:23:34;99314.09;;;8.13;79.38
17785;BME280;9016;53.582;10.062;2023-01-15T05:26:03;99306.88;;;8.15;78.58
17785;BME280;9016;53.582;10.062;2023-01-15T05:28:31;99306.59;;;8.07;78.49
17785;BME280;9016;53.582;10.062;2023-01-15T05:31:04;99303.31;;;8.03;78.73
17785;BME280;9016;53.582;10.062;2023-01-15T05:33:33;99298.25;;;8.00;78.45
17785;BME280;9016;53.582;10.062;2023-01-15T05:36:02;99310.72;;;8.11;77.92
17785;BME280;9016;53.582;10.062;2023-01-15T05:38:33;99304.22;;;8.15;77.68
17785;BME280;9016;53.582;10.062;2023-01-15T05:41:03;99319.91;;;8.18;77.39
17785;BME280;9016;53.582;10.062;2023-01-15T05:43:53;99301.97;;;8.21;77.51
17785;BME280;9016;53.582;10.062;2023-01-15T05:46:22;99312.06;;;8.16;76.72
17785;BME280;9016;53.582;10.062;2023-01-15T05:48:50;99328.09;;;8.15;77.53
17785;BME280;9016;53.582;10.062;2023-01-15T05:51:18;99319.53;;;8.11;77.45
17785;BME280;9016;53.582;10.062;2023-01-15T05:53:48;99319.09;;;8.04;76.58
17785;BME280;9016;53.582;10.062;2023-01-15T05:56:16;99316.88;;;8.11;76.88
17785;BME280;9016;53.582;10.062;2023-01-15T05:58:44;99312.44;;;7.99;76.80
17785;BME280;9016;53.582;10.062;2023-01-15T06:01:12;99311.25;;;8.03;76.90
17785;BME280;9016;53.582;10.062;2023-01-15T06:03:40;99312.00;;;8.05;76.24
17785;BME280;9016;53.582;10.062;2023-01-15T06:06:11;99301.50;;;8.03;75.72
17785;BME280;9016;53.582;10.062;2023-01-15T06:08:40;99309.78;;;7.99;76.36
17785;BME280;9016;53.582;10.062;2023-01-15T06:11:10;99312.25;;;8.02;76.20
17785;BME280;9016;53.582;10.062;2023-01-15T06:13:38;99312.25;;;8.02;75.79
17785;BME280;9016;53.582;10.062;2023-01-15T06:16:09;99317.00;;;8.10;75.06
17785;BME280;9016;53.582;10.062;2023-01-15T06:18:38;99320.69;;;8.07;74.78
17785;BME280;9016;53.582;10.062;2023-01-15T06:21:07;99325.44;;;8.15;74.77
17785;BME280;9016;53.582;10.062;2023-01-15T06:23:37;99318.78;;;8.09;73.79
17785;BME280;9016;53.582;10.062;2023-01-15T06:26:07;99330.41;;;8.19;74.01
17785;BME280;9016;53.582;10.062;2023-01-15T06:28:36;99313.13;;;8.14;73.76
17785;BME280;9016;53.582;10.062;2023-01-15T06:31:05;99314.53;;;8.07;73.18
17785;BME280;9016;53.582;10.062;2023-01-15T06:33:33;99310.81;;;8.09;73.59
17785;BME280;9016;53.582;10.062;2023-01-15T06:36:02;99316.63;;;8.14;73.11
17785;BME280;9016;53.582;10.062;2023-01-15T06:38:30;99320.69;;;8.07;74.11
17785;BME280;9016;53.582;10.062;2023-01-15T06:40:59;99322.09;;;8.00;74.31
17785;BME280;9016;53.582;10.062;2023-01-15T06:43:27;99314.41;;;8.08;74.95
17785;BME280;9016;53.582;10.062;2023-01-15T06:46:15;99323.97;;;8.11;74.52
17785;BME280;9016;53.582;10.062;2023-01-15T06:49:10;99321.63;;;8.06;73.52
17785;BME280;9016;53.582;10.062;2023-01-15T06:51:38;99317.81;;;8.10;74.02
17785;BME280;9016;53.582;10.062;2023-01-15T06:54:06;99316.88;;;8.11;74.60
17785;BME280;9016;53.582;10.062;2023-01-15T06:56:33;99325.22;;;8.18;74.65
17785;BME280;9016;53.582;10.062;2023-01-15T06:59:04;99319.06;;;8.17;74.18
17785;BME280;9016;53.582;10.062;2023-01-15T07:01:34;99317.63;;;8.13;73.57
17785;BME280;9016;53.582;10.062;2023-01-15T07:04:02;99318.66;;;8.11;73.91
17785;BME280;9016;53.582;10.062;2023-01-15T07:06:30;99324.16;;;8.20;74.47
17785;BME280;9016;53.582;10.062;2023-01-15T07:08:58;99314.81;;;8.27;73.81
17785;BME280;9016;53.582;10.062;2023-01-15T07:11:27;99326.16;;;8.29;74.25
17785;BME280;9016;53.582;10.062;2023-01-15T07:13:55;99330.28;;;8.33;73.65
17785;BME280;9016;53.582;10.062;2023-01-15T07:16:31;99328.81;;;8.29;73.95
17785;BME280;9016;53.582;10.062;2023-01-15T07:19:02;99326.06;;;8.31;74.23
17785;BME280;9016;53.582;10.062;2023-01-15T07:21:30;99314.28;;;8.22;73.70
17785;BME280;9016;53.582;10.062;2023-01-15T07:23:59;99319.72;;;8.21;74.03
17785;BME280;9016;53.582;10.062;2023-01-15T07:26:27;99317.84;;;8.34;73.78
17785;BME280;9016;53.582;10.062;2023-01-15T07:28:55;99322.03;;;8.25;74.11
17785;BME280;9016;53.582;10.062;2023-01-15T07:31:23;99309.50;;;8.27;74.67
17785;BME280;9016;53.582;10.062;2023-01-15T07:33:51;99320.66;;;8.20;75.08
17785;BME280;9016;53.582;10.062;2023-01-15T07:36:21;99316.53;;;8.16;75.00
17785;BME280;9016;53.582;10.062;2023-01-15T07:38:49;99311.84;;;8.19;75.39
17785;BME280;9016;53.582;10.062;2023-01-15T07:41:17;99315.03;;;8.12;75.54
17785;BME280;9016;53.582;10.062;2023-01-15T07:44:02;99316.81;;;8.00;76.17
17785;BME280;9016;53.582;10.062;2023-01-15T07:46:48;99318.22;;;7.93;77.02
17785;BME280;9016;53.582;10.062;2023-01-15T07:49:33;99328.97;;;8.15;76.02
17785;BME280;9016;53.582;10.062;2023-01-15T07:52:17;99325.09;;;8.19;76.37
17785;BME280;9016;53.582;10.062;2023-01-15T07:54:47;99323.66;;;8.15;76.07
17785;BME280;9016;53.582;10.062;2023-01-15T07:57:17;99322.19;;;8.11;75.93
17785;BME280;9016;53.582;10.062;2023-01-15T07:59:46;99332.13;;;8.20;76.46
17785;BME280;9016;53.582;10.062;2023-01-15T08:02:14;99338.16;;;8.22;75.31
17785;BME280;9016;53.582;10.062;2023-01-15T08:04:43;99323.84;;;8.12;75.65
17785;BME280;9016;53.582;10.062;2023-01-15T08:07:11;99329.59;;;8.19;75.38
17785;BME280;9016;53.582;10.062;2023-01-15T08:09:40;99328.22;;;8.13;75.49
17785;BME280;9016;53.582;10.062;2023-01-15T08:12:09;99334.97;;;8.17;74.52
17785;BME280;9016;53.582;10.062;2023-01-15T08:14:55;99332.56;;;8.14;74.07
17785;BME280;9016;53.582;10.062;2023-01-15T08:17:43;99344.81;;;8.04;74.72
17785;BME280;9016;53.582;10.062;2023-01-15T08:20:14;99334.16;;;8.17;74.12
17785;BME280;9016;53.582;10.062;2023-01-15T08:22:43;99327.00;;;8.17;73.88
17785;BME280;9016;53.582;10.062;2023-01-15T08:25:14;99328.72;;;8.18;73.60
17785;BME280;9016;53.582;10.062;2023-01-15T08:27:43;99334.88;;;8.19;72.05
17785;BME280;9016;53.582;10.062;2023-01-15T08:30:14;99330.31;;;8.21;72.57
17785;BME280;9016;53.582;10.062;2023-01-15T08:32:43;99346.78;;;8.13;72.31
17785;BME280;9016;53.582;10.062;2023-01-15T08:35:11;99337.84;;;8.14;71.88
17785;BME280;9016;53.582;10.062;2023-01-15T08:37:40;99338.97;;;7.99;71.19
17785;BME280;9016;53.582;10.062;2023-01-15T08:40:10;99347.16;;;7.96;71.27
17785;BME280;9016;53.582;10.062;2023-01-15T08:42:40;99351.72;;;7.94;71.38
17785;BME280;9016;53.582;10.062;2023-01-15T08:45:08;99334.66;;;7.85;70.84
17785;BME280;9016;53.582;10.062;2023-01-15T08:47:37;99323.09;;;7.86;71.43
17785;BME280;9016;53.582;10.062;2023-01-15T08:50:05;99307.69;;;7.91;70.56
17785;BME280;9016;53.582;10.062;2023-01-15T08:52:35;99315.56;;;7.80;70.81
17785;BME280;9016;53.582;10.062;2023-01-15T08:55:04;99309.44;;;7.67;71.28
17785;BME280;9016;53.582;10.062;2023-01-15T08:57:33;99314.66;;;7.69;71.77
17785;BME280;9016;53.582;10.062;2023-01-15T09:00:03;99312.84;;;7.82;71.56
17785;BME280;9016;53.582;10.062;2023-01-15T09:02:31;99308.22;;;7.84;71.71
17785;BME280;9016;53.582;10.062;2023-01-15T09:04:59;99310.50;;;7.77;71.46
17785;BME280;9016;53.582;10.062;2023-01-15T09:07:27;99303.78;;;7.84;70.91
17785;BME280;9016;53.582;10.062;2023-01-15T09:09:55;99300.50;;;7.81;71.11
17785;BME280;9016;53.582;10.062;2023-01-15T09:12:23;99308.69;;;7.78;70.71
17785;BME280;9016;53.582;10.062;2023-01-15T09:14:52;99299.78;;;7.79;71.63
17785;BME280;9016;53.582;10.062;2023-01-15T09:17:31;99301.78;;;7.75;71.23
17785;BME280;9016;53.582;10.062;2023-01-15T09:19:59;99291.19;;;7.75;71.01
17785;BME280;9016;53.582;10.062;2023-01-15T09:22:28;99304.13;;;7.80;71.54
17785;BME280;9016;53.582;10.062;2023-01-15T09:24:57;99300.94;;;7.75;71.45
17785;BME280;9016;53.582;10.062;2023-01-15T09:27:25;99304.44;;;7.75;71.44
17785;BME280;9016;53.582;10.062;2023-01-15T09:29:54;99309.66;;;7.64;70.68
17785;BME280;9016;53.582;10.062;2023-01-15T09:32:22;99306.25;;;7.75;70.37
17785;BME280;9016;53.582;10.062;2023-01-15T09:34:52;99308.69;;;7.78;70.89
17785;BME280;9016;53.582;10.062;2023-01-15T09:37:20;99306.66;;;7.81;70.48
17785;BME280;9016;53.582;10.062;2023-01-15T09:39:48;99317.16;;;7.83;70.16
17785;BME280;9016;53.582;10.062;2023-01-15T09:42:32;99307.59;;;7.80;69.41
17785;BME280;9016;53.582;10.062;2023-01-15T09:45:16;99320.66;;;7.83;69.95
17785;BME280;9016;53.582;10.062;2023-01-15T09:47:57;99318.72;;;7.98;69.64
17785;BME280;9016;53.582;10.062;2023-01-15T09:50:36;99320.31;;;7.88;68.52
17785;BME280;9016;53.582;10.062;2023-01-15T09:53:32;99324.16;;;7.84;67.79
17785;BME280;9016;53.582;10.062;2023-01-15T09:56:03;99316.84;;;7.87;66.95
17785;BME280;9016;53.582;10.062;2023-01-15T09:58:33;99323.63;;;7.79;66.62
17785;BME280;9016;53.582;10.062;2023-01-15T10:01:02;99332.56;;;7.78;64.86
17785;BME280;9016;53.582;10.062;2023-01-15T10:03:34;99321.41;;;7.85;64.76
17785;BME280;9016;53.582;10.062;2023-01-15T10:06:12;99337.41;;;7.96;64.41
17785;BME280;9016;53.582;10.062;2023-01-15T10:08:43;99332.47;;;8.03;64.18
17785;BME280;9016;53.582;10.062;2023-01-15T10:11:33;99305.06;;;7.79;63.67
17785;BME280;9016;53.582;10.062;2023-01-15T10:14:31;99319.50;;;7.75;64.08
17785;BME280;9016;53.582;10.062;2023-01-15T10:17:18;99329.75;;;7.92;63.53
17785;BME280;9016;53.582;10.062;2023-01-15T10:19:47;99324.56;;;7.90;63.74
17785;BME280;9016;53.582;10.062;2023-01-15T10:22:31;99333.47;;;8.02;63.23
17785;BME280;9016;53.582;10.062;2023-01-15T10:25:08;99329.75;;;7.92;62.49
17785;BME280;9016;53.582;10.062;2023-01-15T10:27:45;99330.00;;;7.89;62.95
17785;BME280;9016;53.582;10.062;2023-01-15T10:30:16;99330.38;;;7.95;62.14
17785;BME280;9016;53.582;10.062;2023-01-15T10:32:45;99321.19;;;8.12;62.28
17785;BME280;9016;53.582;10.062;2023-01-15T10:35:33;99327.41;;;8.36;62.17
17785;BME280;9016;53.582;10.062;2023-01-15T10:38:13;99319.00;;;8.42;61.14
17785;BME280;9016;53.582;10.062;2023-01-15T10:40:54;99315.53;;;8.53;60.96
17785;BME280;9016;53.582;10.062;2023-01-15T10:43:34;99317.13;;;8.55;59.82
17785;BME280;9016;53.582;10.062;2023-01-15T10:46:11;99304.63;;;8.45;58.61
17785;BME280;9016;53.582;10.062;2023-01-15T10:48:43;99312.19;;;8.62;58.96
17785;BME280;9016;53.582;10.062;2023-01-15T10:51:15;99299.78;;;8.62;59.17
17785;BME280;9016;53.582;10.062;2023-01-15T10:53:48;99287.03;;;8.44;58.38
17785;BME280;9016;53.582;10.062;2023-01-15T10:56:25;99306.41;;;8.33;58.95
17785;BME280;9016;53.582;10.062;2023-01-15T10:58:58;99292.41;;;8.31;58.70
17785;BME280;9016;53.582;10.062;2023-01-15T11:01:31;99297.59;;;8.33;59.44
17785;BME280;9016;53.582;10.062;2023-01-15T11:03:59;99290.63;;;8.32;58.91
17785;BME280;9016;53.582;10.062;2023-01-15T11:06:29;99281.28;;;8.14;60.04
17785;BME280;9016;53.582;10.062;2023-01-15T11:08:59;99283.19;;;8.48;60.02
17785;BME280;9016;53.582;10.062;2023-01-15T11:11:40;99281.44;;;8.36;58.38
17785;BME280;9016;53.582;10.062;2023-01-15T11:14:34;99272.56;;;8.48;59.13
17785;BME280;9016;53.582;10.062;2023-01-15T11:17:20;99285.97;;;8.46;59.24
17785;BME280;9016;53.582;10.062;2023-01-15T11:20:17;99281.16;;;8.51;59.12
17785;BME280;9016;53.582;10.062;2023-01-15T11:22:50;99271.03;;;8.56;59.10
17785;BME280;9016;53.582;10.062;2023-01-15T11:25:27;99284.75;;;8.50;58.62
17785;BME280;9016;53.582;10.062;2023-01-15T11:27:58;99266.34;;;8.60;58.90
17785;BME280;9016;53.582;10.062;2023-01-15T11:30:29;99273.38;;;8.72;59.04
17785;BME280;9016;53.582;10.062;2023-01-15T11:32:59;99252.50;;;8.78;58.64
17785;BME280;9016;53.582;10.062;2023-01-15T11:35:30;99264.56;;;8.71;59.00
17785;BME280;9016;53.582;10.062;2023-01-15T11:38:03;99282.50;;;8.57;58.62
17785;BME280;9016;53.582;10.062;2023-01-15T11:40:33;99275.34;;;8.46;60.14
17785;BME280;9016;53.582;10.062;2023-01-15T11:43:01;99281.78;;;8.55;61.25
17785;BME280;9016;53.582;10.062;2023-01-15T11:45:48;99272.47;;;8.49;61.12
17785;BME280;9016;53.582;10.062;2023-01-15T11:48:42;99278.53;;;8.28;60.74
17785;BME280;9016;53.582;10.062;2023-01-15T11:51:30;99300.53;;;8.04;62.45
17785;BME280;9016;53.582;10.062;2023-01-15T11:54:02;99300.53;;;7.68;64.95
17785;BME280;9016;53.582;10.062;2023-01-15T11:56:34;99332.34;;;7.68;67.44
17785;BME280;9016;53.582;10.062;2023-01-15T11:59:08;99325.28;;;7.44;68.30
17785;BME280;9016;53.582;10.062;2023-01-15T12:01:44;99339.06;;;6.98;70.96
17785;BME280;9016;53.582;10.062;2023-01-15T12:04:28;99327.59;;;6.46;73.46
17785;BME280;9016;53.582;10.062;2023-01-15T12:06:58;99286.09;;;6.34;76.50
17785;BME280;9016;53.582;10.062;2023-01-15T12:09:37;99268.84;;;6.29;77.14
17785;BME280;9016;53.582;10.062;2023-01-15T12:12:18;99271.97;;;6.21;76.14
17785;BME280;9016;53.582;10.062;2023-01-15T12:15:03;99273.38;;;6.27;74.55
17785;BME280;9016;53.582;10.062;2023-01-15T12:20:40;99276.19;;;6.50;72.11
17785;BME280;9016;53.582;10.062;2023-01-15T12:23:42;99265.13;;;6.44;71.00
17785;BME280;9016;53.582;10.062;2023-01-15T12:26:18;99266.63;;;6.35;71.12
17785;BME280;9016;53.582;10.062;2023-01-15T12:28:59;99274.53;;;6.23;72.27
17785;BME280;9016;53.582;10.062;2023-01-15T12:31:34;99281.72;;;6.33;72.52
17785;BME280;9016;53.582;10.062;2023-01-15T12:34:11;99269.47;;;6.32;72.97
17785;BME280;9016;53.582;10.062;2023-01-15T12:36:45;99275.00;;;6.42;74.14
17785;BME280;9016;53.582;10.062;2023-01-15T12:39:20;99262.44;;;6.58;74.41
17785;BME280;9016;53.582;10.062;2023-01-15T12:41:52;99244.84;;;6.57;75.62
17785;BME280;9016;53.582;10.062;2023-01-15T12:44:44;99262.56;;;6.69;75.31
17785;BME280;9016;53.582;10.062;2023-01-15T12:47:38;99249.44;;;6.67;76.13
17785;BME280;9016;53.582;10.062;2023-01-15T12:50:28;99241.28;;;6.83;75.09
17785;BME280;9016;53.582;10.062;2023-01-15T12:53:05;99241.72;;;6.89;75.97
17785;BME280;9016;53.582;10.062;2023-01-15T12:55:40;99243.19;;;7.06;75.02
17785;BME280;9016;53.582;10.062;2023-01-15T12:58:19;99240.53;;;7.19;74.62
17785;BME280;9016;53.582;10.062;2023-01-15T13:00:50;99226.31;;;7.32;75.06
17785;BME280;9016;53.582;10.062;2023-01-15T13:03:29;99217.72;;;7.29;74.41
17785;BME280;9016;53.582;10.062;2023-01-15T13:06:03;99209.78;;;7.41;74.48
17785;BME280;9016;53.582;10.062;2023-01-15T13:08:37;99213.78;;;7.47;73.53
17785;BME280;9016;53.582;10.062;2023-01-15T13:11:10;99204.94;;;7.59;73.43
17785;BME280;9016;53.582;10.062;2023-01-15T13:13:40;99209.22;;;7.49;73.47
17785;BME280;9016;53.582;10.062;2023-01-15T13:16:15;99204.50;;;7.65;72.63
17785;BME280;9016;53.582;10.062;2023-01-15T13:18:55;99200.44;;;7.72;72.02
17785;BME280;9016;53.582;10.062;2023-01-15T13:21:31;99207.94;;;7.78;71.16
17785;BME280;9016;53.582;10.062;2023-01-15T13:24:12;99209.50;;;7.80;70.91
17785;BME280;9016;53.582;10.062;2023-01-15T13:27:02;99199.69;;;7.70;70.73
17785;BME280;9016;53.582;10.062;2023-01-15T13:29:45;99202.13;;;7.73;70.05
17785;BME280;9016;53.582;10.062;2023-01-15T13:32:21;99197.78;;;7.72;69.55
17785;BME280;9016;53.582;10.062;2023-01-15T13:34:55;99201.91;;;7.76;69.78
17785;BME280;9016;53.582;10.062;2023-01-15T13:37:27;99204.19;;;7.93;69.79
17785;BME280;9016;53.582;10.062;2023-01-15T13:39:58;99185.50;;;7.94;69.32
17785;BME280;9016;53.582;10.062;2023-01-15T13:42:30;99190.28;;;7.89;69.52